Tiempo atmosférico en la estación meteorológica de Valverde del Fresno, Cáceres (498 m.)



Fecha
DESCASC
Temp. máxima en grados centígrados (hora)
DESCASC
Temp. mínima en grados centígrados (hora)
DESCASC
Temp. media en grados centígrados
DESCASC
Racha de viento máxima en m/sg (hora)
DESCASC
Velocidad máxima media en intervalos de 10 minutos(hora)
DESCASC
Precipitaciones diarias en mm
DESCASC
Precipitaciones de 00:00 a 06:00 en mm
DESCASC
Precipitaciones de 06:00 a 12:00 en mm
DESCASC
Precipitaciones de 12:00 a 18:00 en mm
DESCASC
Precipitaciones de 18:00 a 24:00 en mm
DESCASC
20-09-2020 24.1 (17:10) 16.2 (07:00) 20.2 8.33 (16:00) 4.44 (16:00) 9.2 3.6 5.2 0.4 0
19-09-2020 18.2 (13:40) 15.4 (07:20) 16.8 13.33 (01:40) 6.67 (01:40) 13 7 0 3 3
18-09-2020 21.5 (15:30) 14.9 (08:10) 18.2 11.94 (16:30) 7.22 (17:20) 21.8 0.2 0 0 21.6
17-09-2020 23.9 (14:00) 16.4 (00:00) 20.1 10 (15:10) 5.83 (15:10) 3.6 0 0 0 3.6
16-09-2020 28 (14:40) 14.6 (00:00) 21.3 6.67 (14:20) 4.44 (14:50) 0 0 0 0 0
15-09-2020 28.6 (17:50) 15 (00:00) 21.8 9.17 (15:40) 4.72 (16:40) 0 0 0 0 0
14-09-2020 29.9 (16:10) 18.9 (00:00) 24.4 8.89 (17:10) 5.56 (17:10) 0 0 0 0 0
13-09-2020 33.5 (18:20) 21.3 (00:00) 27.4 9.17 (12:20) 5.28 (12:50) 0 0 0 0 0
12-09-2020 34 (18:20) 16.9 (00:00) 25.4 7.78 (14:10) 4.72 (13:10) 0 0 0 0 0
11-09-2020 33.6 (15:50) 15.6 (00:00) 24.6 6.67 (13:30) 3.89 (14:00) 0 0 0 0 0
10-09-2020 33.7 (17:30) 18.8 (00:00) 26.3 8.61 (17:50) 3.89 (01:50) 0 0 0 0 0
09-09-2020 31.7 (18:10) 15.9 (00:00) 23.8 6.94 (16:50) 4.17 (13:50) 0 0 0 0 0
08-09-2020 28.8 (16:40) 15.1 (00:00) 21.9 10.83 (01:10) 6.11 (01:00) 0 0 0 0 0
07-09-2020 30.8 (16:40) 16.8 (08:00) 23.8 16.11 (22:00) 9.72 (22:50) 0 0 0 0 0
06-09-2020 35.3 (16:20) 19.2 (00:00) 27.3 10.28 (00:40) 5.56 (02:30) 0 0 0 0 0
05-09-2020 35.7 (16:30) 22.2 (00:00) 29 8.33 (00:10) 4.72 (00:10) 0 0 0 0 0
04-09-2020 34.6 (17:00) 16.9 (00:00) 25.7 9.17 (23:59) 5 (23:00) 0 0 0 0 0
03-09-2020 34.6 (18:10) 16.1 (00:00) 25.3 8.33 (00:20) 5.28 (00:20) 0 0 0 0 0
02-09-2020 32.4 (18:20) 16.2 (00:00) 24.3 13.61 (01:50) 6.39 (00:40) 0 0 0 0 0
01-09-2020 30.8 (17:10) 15.3 (00:00) 23 11.11 (22:50) 6.94 (23:50) 0 0 0 0 0
31-08-2020 28.6 (19:00) 12.7 (00:00) 20.7 10 (01:30) 6.11 (01:20) 0 0 0 0 0
30-08-2020 26.5 (17:50) 11.9 (00:00) 19.2 13.61 (00:40) 7.22 (02:00) 0 0 0 0 0
29-08-2020 25 (17:50) 12.8 (00:00) 18.9 12.78 (03:40) 6.11 (15:20) 0 0 0 0 0
28-08-2020 29.7 (16:40) 18.1 (00:00) 23.9 14.44 (02:20) 9.72 (01:10) 0 0 0 0 0
27-08-2020 36.7 (16:30) 24.2 (00:00) 30.5 14.17 (23:59) 8.06 (23:10) 0 0 0 0 0
26-08-2020 38 (18:20) 18.4 (00:00) 28.2 11.11 (01:30) 6.67 (22:20) 0 0 0 0 0
25-08-2020 37.2 (17:40) 20.3 (00:00) 28.8 11.39 (22:20) 6.67 (23:10) 0 0 0 0 0
24-08-2020 35.8 (16:10) 22.8 (00:00) 29.3 12.5 (00:50) 7.5 (00:10) 0 0 0 0 0
23-08-2020 33.9 (18:00) 19.6 (00:00) 26.8 12.5 (01:50) 7.5 (08:50) 0 0 0 0 0

Gráficas

Temp. máximas Temp. mínimas Temp. medias Precipitaciones Rachas de viento máximas Velocidades máximas media en intervalos de 10 minutos

Datos horarios

Fecha y hora oficial Temperatura (ºC) Velocidad del viento (km/h) Dirección del viento Racha (km/h) Dirección de racha Precipitación (mm) Presión (hPa) Tendencia (hPa) Humedad (%)
2020-09-21 23:00:00 17.6 3 Sudoeste 9 Nordeste 0 -- -- 65
2020-09-21 22:00:00 19 7 Norte 21 Noroeste 0 -- -- 59
2020-09-21 21:00:00 19.8 13 Noroeste 22 Norte 0 -- -- 55
2020-09-21 20:00:00 21.7 6 Noroeste 13 Noroeste 0 -- -- 49
2020-09-21 19:00:00 24.2 7 Noroeste 17 Noroeste 0 -- -- 44
2020-09-21 18:00:00 25.3 7 Sudoeste 19 Norte 0 -- -- 39
2020-09-21 17:00:00 23.9 5 Noroeste 22 Norte 0 -- -- 42
2020-09-21 16:00:00 24 5 Noroeste 18 Noroeste 0 -- -- 42
2020-09-21 15:00:00 23.9 5 Noroeste 18 Oeste 0 -- -- 40
2020-09-21 14:00:00 23.2 4 Sudoeste 13 Oeste 0 -- -- 42
2020-09-21 13:00:00 21.5 6 Norte 22 Nordeste 0 -- -- 47
2020-09-21 12:00:00 21 9 Nordeste 25 Este 0 -- -- 49
2020-09-21 11:00:00 18.8 11 Norte 28 Nordeste 0 -- -- 59
2020-09-21 10:00:00 17.4 14 Nordeste 22 Nordeste 0 -- -- 64
2020-09-21 09:00:00 15.5 6 Norte 15 Norte 0 -- -- 68
2020-09-21 08:00:00 14.7 2 Este 12 Noroeste 0 -- -- 69
2020-09-21 07:00:00 14.9 3 Norte 9 Este 0 -- -- 67
2020-09-21 06:00:00 15.2 4 Nordeste 21 Nordeste 0 -- -- 67
2020-09-21 05:00:00 15.9 12 Nordeste 18 Nordeste 0 -- -- 66
2020-09-21 04:00:00 16.1 10 Nordeste 28 Nordeste 0 -- -- 68
2020-09-21 03:00:00 16.2 3 Sudoeste 31 Norte 0 -- -- 67
2020-09-21 02:00:00 16.8 14 Norte 32 Norte 0 -- -- 66
2020-09-21 01:00:00 16.7 9 Nordeste 15 Nordeste 0 -- -- 69
2020-09-21 00:00:00 16.7 6 Norte 14 Norte 0 -- -- 72
2020-09-20 23:00:00 17.4 4 Norte 10 Norte 0 -- -- 69
2020-09-20 22:00:00 18.1 4 Este 14 Norte 0 -- -- 69
2020-09-20 21:00:00 19.4 4 Norte 13 Noroeste 0 -- -- 66
2020-09-20 20:00:00 20.8 6 Oeste 11 Oeste 0 -- -- 63
2020-09-20 19:00:00 22.6 8 Oeste 26 Oeste 0 -- -- 55
2020-09-20 18:00:00 23.4 10 Sudoeste 24 Oeste 0 -- -- 52
2020-09-20 17:00:00 24 12 Sudoeste 26 Oeste 0 -- -- 52
2020-09-20 16:00:00 23.4 16 Sudoeste 30 Sudoeste 0 -- -- 55
2020-09-20 15:00:00 22.8 13 Sudoeste 20 Oeste 0 -- -- 61
2020-09-20 14:00:00 21.1 9 Sudoeste 19 Sudoeste 0 -- -- 75
2020-09-20 13:00:00 19.3 5 Sudeste 9 Sur 0.4 -- -- 91
2020-09-20 12:00:00 16.7 3 Norte 6 Sudeste 4.4 -- -- 97
2020-09-20 11:00:00 16.3 4 Sudeste 7 Sudeste 0.2 -- -- 98
2020-09-20 10:00:00 16.2 5 Sudeste 8 Sur 0.2 -- -- 98
2020-09-20 09:00:00 16.3 3 Sur 8 Este 0.4 -- -- 97
2020-09-20 08:00:00 16.3 0 Calma 4 Sudeste 0 -- -- 96
2020-09-20 07:00:00 16.2 4 Oeste 11 Sudoeste 0 -- -- 97
2020-09-20 06:00:00 16.6 5 Sur 9 Sur 0.2 -- -- 98
2020-09-20 05:00:00 16.4 4 Sur 14 Sur 0.6 -- -- 98
2020-09-20 04:00:00 16.5 8 Sur 15 Sur 2.2 -- -- 97
2020-09-20 03:00:00 16.7 6 Sur 10 Sur 0.6 -- -- 97
2020-09-20 02:00:00 16.7 2 Este 5 Sudeste 0 -- -- 96
2020-09-20 01:00:00 16.5 2 Nordeste 6 Oeste 0 -- -- 96
2020-09-20 00:00:00 16.4 2 Nordeste 5 Sudoeste 0 -- -- 96
2020-09-19 23:00:00 16.5 3 Sur 14 Sudeste 0.8 -- -- 95
2020-09-19 22:00:00 16.7 3 Nordeste 5 Nordeste 0.4 -- -- 96
2020-09-19 21:00:00 16.5 3 Nordeste 6 Sur 1.4 -- -- 96
2020-09-19 20:00:00 17 3 Este 10 Este 0.4 -- -- 93
2020-09-19 19:00:00 17.2 3 Este 10 Nordeste 0 -- -- 92
2020-09-19 18:00:00 17 6 Nordeste 10 Sudeste 0.6 -- -- 93
2020-09-19 17:00:00 17.2 2 Sur 10 Nordeste 0.2 -- -- 88
2020-09-19 16:00:00 17.3 5 Nordeste 8 Nordeste 0.4 -- -- 91
2020-09-19 15:00:00 17.1 5 Sudoeste 17 Sudoeste 1.8 -- -- 88
2020-09-19 14:00:00 17.8 8 Sudoeste 19 Oeste 0 -- -- 83
2020-09-19 13:00:00 17.9 14 Sudoeste 24 Sudoeste 0 -- -- 79
2020-09-19 12:00:00 17.6 9 Oeste 17 Oeste 0 -- -- 86
2020-09-19 11:00:00 16.9 4 Oeste 15 Sudoeste 0 -- -- 88
2020-09-19 10:00:00 16.1 7 Sudoeste 14 Sudoeste 0 -- -- 91
2020-09-19 09:00:00 15.7 3 Oeste 12 Sudoeste 0 -- -- 92
2020-09-19 08:00:00 15.4 2 Sur 18 Oeste 0 -- -- 93
2020-09-19 07:00:00 15.5 8 Sudoeste 16 Oeste 0 -- -- 92
2020-09-19 06:00:00 15.7 12 Sudoeste 20 Sudoeste 0 -- -- 91
2020-09-19 05:00:00 15.8 10 Sudoeste 22 Sudoeste 0 -- -- 92
2020-09-19 04:00:00 16.1 13 Sudoeste 28 Sudoeste 0 -- -- 92
2020-09-19 03:00:00 16.1 15 Sudoeste 37 Sudoeste 0.6 -- -- 95
2020-09-19 02:00:00 16 18 Sur 48 Sur 3 -- -- 95
2020-09-19 01:00:00 15.9 16 Sudeste 28 Sudeste 3.4 -- -- 95
2020-09-19 00:00:00 15.8 7 Sur 31 Sur 4.4 -- -- 96
2020-09-18 23:00:00 16.2 12 Sudoeste 35 Sudeste 7 -- -- 95
2020-09-18 22:00:00 16.2 13 Sudeste 28 Este 2 -- -- 93
2020-09-18 21:00:00 16 13 Sudeste 31 Sur 3.2 -- -- 93
2020-09-18 20:00:00 16.7 10 Sudeste 32 Sudeste 2.4 -- -- 89
2020-09-18 19:00:00 17.1 15 Sudeste 40 Este 2.6 -- -- 88
2020-09-18 18:00:00 20.6 19 Sudeste 41 Sudeste 0 -- -- 65
2020-09-18 17:00:00 20.6 24 Sudeste 43 Sudeste 0 -- -- 65
2020-09-18 16:00:00 20.3 22 Sudeste 39 Este 0 -- -- 67
2020-09-18 15:00:00 21 18 Sudeste 33 Sudeste 0 -- -- 63
2020-09-18 14:00:00 20.8 19 Sudeste 37 Sudeste 0 -- -- 61
2020-09-18 13:00:00 20.4 17 Sudeste 33 Sudeste 0 -- -- 65
2020-09-18 12:00:00 19.4 18 Sudeste 30 Sudeste 0 -- -- 75
2020-09-18 11:00:00 18.2 8 Sudeste 19 Sudeste 0 -- -- 81
2020-09-18 10:00:00 17 6 Sudeste 12 Este 0 -- -- 89
2020-09-18 09:00:00 15.7 2 Sudeste 4 Sudeste 0 -- -- 96
2020-09-18 08:00:00 15.1 0 Calma 5 Sudoeste 0 -- -- 95
2020-09-18 07:00:00 15.6 4 Sudoeste 6 Oeste 0 -- -- 95
2020-09-18 06:00:00 16 2 Sudeste 5 Este 0 -- -- 95
2020-09-18 05:00:00 16.2 2 Nordeste 6 Sudoeste 0 -- -- 96
2020-09-18 04:00:00 16.2 4 Sudoeste 6 Sudoeste 0 -- -- 95
2020-09-18 03:00:00 16.3 4 Noroeste 7 Sudoeste 0 -- -- 95
2020-09-18 02:00:00 16.5 0 Calma 8 Noroeste 0.2 -- -- 95
2020-09-18 01:00:00 16.1 7 Norte 9 Norte 0 -- -- 95
2020-09-18 00:00:00 16.5 0 Calma 9 Nordeste 0 -- -- 93
2020-09-17 23:00:00 16.6 4 Norte 12 Oeste 0 -- -- 93
2020-09-17 22:00:00 16.9 0 Calma 12 Sur 1.4 -- -- 93
2020-09-17 21:00:00 17.6 6 Nordeste 26 Sudoeste 1 -- -- 89
2020-09-17 20:00:00 18.9 3 Norte 12 Este 0.4 -- -- 90
2020-09-17 19:00:00 19.7 12 Sudeste 30 Sudeste 0.8 -- -- 85
2020-09-17 18:00:00 22.5 7 Este 22 Sudeste 0 -- -- 69
2020-09-17 17:00:00 23.3 13 Este 26 Sudeste 0 -- -- 63
2020-09-17 16:00:00 22.2 16 Sudeste 36 Este 0 -- -- 67
2020-09-17 15:00:00 22.8 18 Este 35 Sudeste 0 -- -- 63
2020-09-17 14:00:00 23.9 12 Sur 22 Sur 0 -- -- 56
2020-09-17 13:00:00 21.9 9 Sur 18 Sudeste 0 -- -- 66
2020-09-17 12:00:00 20.6 9 Este 22 Sudeste 0 -- -- 72
2020-09-17 11:00:00 20.6 8 Sudeste 24 Sudeste 0 -- -- 66
2020-09-17 10:00:00 19.9 2 Sudoeste 6 Este 0 -- -- 65
2020-09-17 09:00:00 18.4 0 Calma 9 Nordeste 0 -- -- 68
2020-09-17 08:00:00 17.7 3 Nordeste 8 Norte 0 -- -- 67
2020-09-17 07:00:00 17.5 3 Noroeste 6 Oeste 0 -- -- 67
2020-09-17 06:00:00 17.7 3 Sur 11 Norte 0 -- -- 66
2020-09-17 05:00:00 17.2 8 Norte 10 Norte 0 -- -- 67
2020-09-17 04:00:00 17.6 4 Oeste 11 Norte 0 -- -- 65
2020-09-17 03:00:00 17.7 0 Calma 8 Norte 0 -- -- 63
2020-09-17 02:00:00 18.2 5 Sudoeste 11 Oeste 0 -- -- 61
2020-09-17 01:00:00 19 5 Norte 8 Norte 0 -- -- 59
2020-09-17 00:00:00 18.9 5 Norte 8 Norte 0 -- -- 59
2020-09-16 23:00:00 20 2 Sudoeste 10 Norte 0 -- -- 56
2020-09-16 22:00:00 21.2 3 Nordeste 13 Norte 0 -- -- 53
2020-09-16 21:00:00 23.2 10 Norte 13 Norte 0 -- -- 49
2020-09-16 20:00:00 26.8 2 Noroeste 6 Oeste 0 -- -- 39
2020-09-16 19:00:00 27 2 Sudeste 8 Sur 0 -- -- 38
2020-09-16 18:00:00 27.4 6 Sudeste 16 Sudeste 0 -- -- 37
2020-09-16 17:00:00 28 10 Este 21 Sudeste 0 -- -- 36
2020-09-16 16:00:00 27.8 8 Sur 22 Sur 0 -- -- 37
2020-09-16 15:00:00 27.7 13 Sudeste 24 Sudeste 0 -- -- 37
2020-09-16 14:00:00 27.4 9 Sudeste 19 Este 0 -- -- 37
2020-09-16 13:00:00 24.9 4 Sur 9 Sur 0 -- -- 44
2020-09-16 12:00:00 23.2 5 Sur 10 Sur 0 -- -- 47
2020-09-16 11:00:00 21.9 4 Sudoeste 6 Sudoeste 0 -- -- 52
2020-09-16 10:00:00 18.2 2 Este 5 Nordeste 0 -- -- 64
2020-09-16 09:00:00 15.6 2 Nordeste 5 Norte 0 -- -- 70
2020-09-16 08:00:00 15.1 4 Noroeste 7 Norte 0 -- -- 69
2020-09-16 07:00:00 15.4 5 Norte 9 Norte 0 -- -- 69
2020-09-16 06:00:00 15.3 3 Norte 6 Noroeste 0 -- -- 68
2020-09-16 05:00:00 15.4 2 Noroeste 5 Norte 0 -- -- 68
2020-09-16 04:00:00 16.4 0 Calma 4 Norte 0 -- -- 64
2020-09-16 03:00:00 17.7 4 Noroeste 10 Norte 0 -- -- 60
2020-09-16 02:00:00 18.1 10 Norte 12 Norte 0 -- -- 58
2020-09-16 01:00:00 19 9 Norte 14 Norte 0 -- -- 56
2020-09-16 00:00:00 19 9 Norte 13 Norte 0 -- -- 56
2020-09-15 23:00:00 19.6 10 Norte 13 Norte 0 -- -- 55
2020-09-15 22:00:00 21 8 Norte 10 Norte 0 -- -- 53
2020-09-15 21:00:00 23.8 3 Noroeste 17 Sudoeste 0 -- -- 46
2020-09-15 20:00:00 26.4 11 Oeste 21 Sudoeste 0 -- -- 41
2020-09-15 19:00:00 27.9 8 Sur 21 Sur 0 -- -- 36
2020-09-15 18:00:00 28 13 Sudoeste 24 Sur 0 -- -- 36
2020-09-15 17:00:00 28.3 7 Sur 26 Sudoeste 0 -- -- 37
2020-09-15 16:00:00 26.7 8 Sudeste 33 Sudoeste 0 -- -- 41
2020-09-15 15:00:00 27 9 Sur 25 Sudoeste 0 -- -- 40
2020-09-15 14:00:00 26.6 14 Sur 28 Sudeste 0 -- -- 40
2020-09-15 13:00:00 24.9 13 Sudoeste 24 Sudoeste 0 -- -- 46
2020-09-15 12:00:00 23.5 8 Sur 15 Sur 0 -- -- 52
2020-09-15 11:00:00 22.2 4 Sudeste 8 Sudeste 0 -- -- 58
2020-09-15 10:00:00 19.4 3 Sur 6 Norte 0 -- -- 66
2020-09-15 09:00:00 15.6 5 Norte 6 Norte 0 -- -- 79
2020-09-15 08:00:00 15.2 2 Norte 6 Norte 0 -- -- 80
2020-09-15 07:00:00 16.5 2 Sudoeste 4 Norte 0 -- -- 73
2020-09-15 06:00:00 16.7 2 Norte 7 Norte 0 -- -- 72
2020-09-15 05:00:00 17.3 0 Calma 6 Norte 0 -- -- 70
2020-09-15 04:00:00 17.5 4 Norte 5 Norte 0 -- -- 69
2020-09-15 03:00:00 18.9 0 Calma 5 Sudoeste 0 -- -- 63
2020-09-15 02:00:00 18.7 2 Sudoeste 6 Noroeste 0 -- -- 63
2020-09-15 01:00:00 19.3 4 Noroeste 9 Norte 0 -- -- 60
2020-09-15 00:00:00 20 6 Norte 10 Norte 0 -- -- 60
2020-09-14 23:00:00 20.8 8 Norte 10 Norte 0 -- -- 59
2020-09-14 22:00:00 22.9 4 Nordeste 11 Oeste 0 -- -- 54
2020-09-14 21:00:00 25.5 8 Oeste 21 Sudoeste 0 -- -- 47
2020-09-14 20:00:00 27.3 13 Sudoeste 22 Sur 0 -- -- 43
2020-09-14 19:00:00 28.4 12 Sur 30 Sudoeste 0 -- -- 38
2020-09-14 18:00:00 29.4 17 Sudoeste 32 Sur 0 -- -- 36
2020-09-14 17:00:00 29.1 15 Sur 31 Sur 0 -- -- 36
2020-09-14 16:00:00 29.5 16 Sudeste 30 Sudeste 0 -- -- 39
2020-09-14 15:00:00 28.6 15 Sudeste 30 Sur 0 -- -- 43
2020-09-14 14:00:00 26.5 7 Sudeste 28 Sur 0 -- -- 48
2020-09-14 13:00:00 27.6 13 Sur 27 Sudeste 0 -- -- 47
2020-09-14 12:00:00 25.2 8 Sur 16 Sur 0 -- -- 54
2020-09-14 11:00:00 24.1 6 Sudeste 11 Sudeste 0 -- -- 57
2020-09-14 10:00:00 22.9 4 Este 8 Norte 0 -- -- 62
2020-09-14 09:00:00 19.2 7 Norte 9 Norte 0 -- -- 74
2020-09-14 08:00:00 19.6 3 Noroeste 8 Norte 0 -- -- 72
2020-09-14 07:00:00 20.1 6 Norte 8 Noroeste 0 -- -- 70
2020-09-14 06:00:00 20.1 5 Norte 8 Norte 0 -- -- 66
2020-09-14 05:00:00 20.9 2 Norte 8 Noroeste 0 -- -- 64
2020-09-14 04:00:00 20.8 5 Norte 9 Oeste 0 -- -- 62
2020-09-14 03:00:00 21.4 3 Norte 9 Norte 0 -- -- 56
2020-09-14 02:00:00 22.4 4 Noroeste 11 Norte 0 -- -- 50
2020-09-14 01:00:00 23.3 9 Norte 10 Norte 0 -- -- 44
2020-09-14 00:00:00 26.1 0 Calma 17 Sudeste 0 -- -- 37
2020-09-13 23:00:00 27.9 13 Sur 24 Sudeste 0 -- -- 33
2020-09-13 22:00:00 29.3 13 Sudeste 22 Este 0 -- -- 30
2020-09-13 21:00:00 29.6 12 Este 25 Este 0 -- -- 30
2020-09-13 20:00:00 31.1 14 Este 30 Sudeste 0 -- -- 28
2020-09-13 19:00:00 32.9 18 Sudeste 31 Este 0 -- -- 25
2020-09-13 18:00:00 33.4 16 Este 30 Este 0 -- -- 25
2020-09-13 17:00:00 32.4 15 Sudeste 32 Este 0 -- -- 26
2020-09-13 16:00:00 32.3 16 Sudeste 31 Sudeste 0 -- -- 25
2020-09-13 15:00:00 30.6 14 Sudeste 29 Sudeste 0 -- -- 30
2020-09-13 14:00:00 30.7 14 Sudeste 29 Este 0 -- -- 27
2020-09-13 13:00:00 29.3 17 Sudeste 33 Sudeste 0 -- -- 33
2020-09-13 12:00:00 29.6 18 Sudeste 30 Sudeste 0 -- -- 29
2020-09-13 11:00:00 27.8 17 Sudeste 30 Este 0 -- -- 32
2020-09-13 10:00:00 27.2 9 Sudeste 26 Sudeste 0 -- -- 33
2020-09-13 09:00:00 25.7 12 Nordeste 22 Este 0 -- -- 33
2020-09-13 08:00:00 24.9 14 Este 29 Este 0 -- -- 32
2020-09-13 07:00:00 25.7 12 Este 25 Este 0 -- -- 30
2020-09-13 06:00:00 22.7 4 Nordeste 8 Oeste 0 -- -- 34
2020-09-13 05:00:00 24 3 Sudoeste 5 Sur 0 -- -- 33
2020-09-13 04:00:00 23.5 0 Calma 9 Norte 0 -- -- 34
2020-09-13 03:00:00 23.2 0 Calma 5 Sudoeste 0 -- -- 35
2020-09-13 02:00:00 24.5 0 Calma 13 Norte 0 -- -- 32
2020-09-13 01:00:00 25.1 9 Norte 12 Norte 0 -- -- 32
2020-09-13 00:00:00 25.3 8 Norte 13 Norte 0 -- -- 32
2020-09-12 23:00:00 25.8 10 Norte 12 Norte 0 -- -- 30
2020-09-12 22:00:00 26.2 10 Norte 14 Norte 0 -- -- 29
2020-09-12 21:00:00 27.5 11 Norte 13 Norte 0 -- -- 28
2020-09-12 20:00:00 32.7 5 Este 15 Este 0 -- -- 21
2020-09-12 19:00:00 33.9 8 Sudeste 21 Sur 0 -- -- 19
2020-09-12 18:00:00 33.3 8 Sudeste 20 Sudeste 0 -- -- 20
2020-09-12 17:00:00 33.5 8 Este 18 Sudeste 0 -- -- 20
2020-09-12 16:00:00 33.7 12 Sur 21 Sudeste 0 -- -- 20
2020-09-12 15:00:00 33.2 10 Sudeste 28 Este 0 -- -- 22
2020-09-12 14:00:00 33.7 12 Sudeste 26 Sur 0 -- -- 22
2020-09-12 13:00:00 32.8 12 Sudeste 25 Sudeste 0 -- -- 22
2020-09-12 12:00:00 29.6 5 Sur 12 Sudoeste 0 -- -- 27
2020-09-12 11:00:00 27.1 7 Sur 10 Sudoeste 0 -- -- 30
2020-09-12 10:00:00 22.4 3 Nordeste 9 Nordeste 0 -- -- 40
2020-09-12 09:00:00 18.2 4 Nordeste 9 Noroeste 0 -- -- 49
2020-09-12 08:00:00 17.6 4 Noroeste 10 Noroeste 0 -- -- 47
2020-09-12 07:00:00 17.2 3 Nordeste 10 Norte 0 -- -- 49
2020-09-12 06:00:00 19.2 5 Noroeste 8 Noroeste 0 -- -- 42
2020-09-12 05:00:00 20.2 0 Calma 10 Norte 0 -- -- 39
2020-09-12 04:00:00 18.5 5 Nordeste 8 Norte 0 -- -- 45
2020-09-12 03:00:00 21.2 6 Oeste 10 Oeste 0 -- -- 37
2020-09-12 02:00:00 23.6 4 Norte 11 Nordeste 0 -- -- 31
2020-09-12 01:00:00 24 5 Nordeste 16 Nordeste 0 -- -- 32
2020-09-12 00:00:00 23.7 6 Norte 10 Nordeste 0 -- -- 33
2020-09-11 23:00:00 22.8 6 Norte 14 Norte 0 -- -- 36
2020-09-11 22:00:00 24.6 11 Norte 14 Norte 0 -- -- 32
2020-09-11 21:00:00 27.2 10 Norte 12 Norte 0 -- -- 31
2020-09-11 20:00:00 32.2 0 Calma 5 Este 0 -- -- 22
2020-09-11 19:00:00 32.2 5 Sudeste 16 Sur 0 -- -- 21
2020-09-11 18:00:00 32.1 0 Calma 12 Sudoeste 0 -- -- 21
2020-09-11 17:00:00 32.6 6 Sudoeste 20 Sur 0 -- -- 21
2020-09-11 16:00:00 33.1 5 Sudeste 20 Sudeste 0 -- -- 20
2020-09-11 15:00:00 33.2 8 Sudoeste 21 Sudeste 0 -- -- 20
2020-09-11 14:00:00 32.4 14 Sudeste 24 Sudeste 0 -- -- 23
2020-09-11 13:00:00 31.5 9 Sur 17 Este 0 -- -- 23
2020-09-11 12:00:00 29.8 4 Sudeste 12 Sudeste 0 -- -- 27
2020-09-11 11:00:00 26.6 4 Sudoeste 9 Sur 0 -- -- 31
2020-09-11 10:00:00 22.6 2 Este 5 Nordeste 0 -- -- 38
2020-09-11 09:00:00 19.3 3 Este 13 Norte 0 -- -- 43
2020-09-11 08:00:00 15.6 5 Sudoeste 12 Sur 0 -- -- 51
2020-09-11 07:00:00 16.7 3 Nordeste 10 Norte 0 -- -- 47
2020-09-11 06:00:00 18.4 6 Norte 9 Norte 0 -- -- 42
2020-09-11 05:00:00 19.5 4 Norte 10 Noroeste 0 -- -- 39
2020-09-11 04:00:00 18.7 6 Norte 10 Norte 0 -- -- 41
2020-09-11 03:00:00 21.3 6 Norte 10 Norte 0 -- -- 36
2020-09-11 02:00:00 20 3 Noroeste 13 Norte 0 -- -- 38
2020-09-11 01:00:00 22 3 Norte 8 Norte 0 -- -- 34
2020-09-11 00:00:00 23.9 9 Norte 11 Norte 0 -- -- 30
2020-09-10 23:00:00 24.5 5 Norte 14 Norte 0 -- -- 30
2020-09-10 22:00:00 24.9 5 Norte 12 Norte 0 -- -- 28
2020-09-10 21:00:00 28.2 4 Nordeste 8 Sudoeste 0 -- -- 24
2020-09-10 20:00:00 32.2 6 Sur 18 Sur 0 -- -- 19
2020-09-10 19:00:00 33.2 10 Sur 21 Sur 0 -- -- 19
2020-09-10 18:00:00 33.7 12 Sudoeste 31 Oeste 0 -- -- 19
2020-09-10 17:00:00 33.6 10 Sudeste 25 Sudeste 0 -- -- 20
2020-09-10 16:00:00 33.2 8 Sur 24 Sur 0 -- -- 21
2020-09-10 15:00:00 32.5 10 Sur 30 Sur 0 -- -- 22
2020-09-10 14:00:00 31.9 7 Sur 20 Sur 0 -- -- 23
2020-09-10 13:00:00 30 5 Sur 14 Sudoeste 0 -- -- 26
2020-09-10 12:00:00 28.1 7 Sudeste 15 Sur 0 -- -- 28
2020-09-10 11:00:00 25 4 Oeste 14 Sudoeste 0 -- -- 31
2020-09-10 10:00:00 21.1 9 Sudoeste 15 Sudoeste 0 -- -- 36
2020-09-10 09:00:00 21.2 0 Calma 7 Norte 0 -- -- 36
2020-09-10 08:00:00 18.9 3 Sur 12 Nordeste 0 -- -- 37
2020-09-10 07:00:00 20.1 3 Noroeste 15 Nordeste 0 -- -- 35
2020-09-10 06:00:00 22.3 4 Noroeste 19 Norte 0 -- -- 32
2020-09-10 05:00:00 22.6 8 Norte 17 Norte 0 -- -- 31
2020-09-10 04:00:00 22.5 8 Norte 17 Norte 0 -- -- 30
2020-09-10 03:00:00 21.3 6 Norte 18 Norte 0 -- -- 31
2020-09-10 02:00:00 22.8 13 Norte 18 Norte 0 -- -- 28
2020-09-10 01:00:00 21.1 11 Norte 14 Norte 0 -- -- 33
2020-09-10 00:00:00 20.4 5 Norte 11 Norte 0 -- -- 37
2020-09-09 23:00:00 22 8 Norte 12 Norte 0 -- -- 34
2020-09-09 22:00:00 22.8 5 Norte 13 Norte 0 -- -- 34
2020-09-09 21:00:00 25.4 9 Norte 12 Oeste 0 -- -- 30
2020-09-09 20:00:00 30.3 7 Sudoeste 17 Sudoeste 0 -- -- 22
2020-09-09 19:00:00 31.3 12 Sur 21 Sur 0 -- -- 21
2020-09-09 18:00:00 31.6 9 Sur 24 Oeste 0 -- -- 22
2020-09-09 17:00:00 31 12 Sur 25 Sudeste 0 -- -- 23
2020-09-09 16:00:00 30.7 8 Sudoeste 23 Sur 0 -- -- 24
2020-09-09 15:00:00 30.1 10 Sudeste 19 Sur 0 -- -- 24
2020-09-09 14:00:00 29 13 Sur 24 Sur 0 -- -- 26
2020-09-09 13:00:00 27.7 7 Sudoeste 23 Sur 0 -- -- 29
2020-09-09 12:00:00 26 8 Sur 17 Sur 0 -- -- 32
2020-09-09 11:00:00 24.3 5 Sur 11 Sur 0 -- -- 34
2020-09-09 10:00:00 21.9 4 Sur 6 Sudoeste 0 -- -- 40
2020-09-09 09:00:00 17.4 3 Noroeste 13 Norte 0 -- -- 49
2020-09-09 08:00:00 17.7 9 Norte 13 Norte 0 -- -- 46
2020-09-09 07:00:00 17.8 8 Norte 14 Norte 0 -- -- 44
2020-09-09 06:00:00 17.2 10 Norte 13 Norte 0 -- -- 45
2020-09-09 05:00:00 17.6 3 Norte 15 Norte 0 -- -- 44
2020-09-09 04:00:00 19.5 12 Norte 15 Norte 0 -- -- 38
2020-09-09 03:00:00 19.1 12 Norte 14 Norte 0 -- -- 40
2020-09-09 02:00:00 19.8 12 Norte 15 Norte 0 -- -- 40
2020-09-09 01:00:00 19.7 12 Norte 14 Norte 0 -- -- 42
2020-09-09 00:00:00 19.8 12 Norte 14 Norte 0 -- -- 42
2020-09-08 23:00:00 19.8 12 Norte 15 Norte 0 -- -- 40
2020-09-08 22:00:00 20.6 12 Norte 14 Norte 0 -- -- 39
2020-09-08 21:00:00 24.2 3 Nordeste 15 Sudeste 0 -- -- 33
2020-09-08 20:00:00 27.1 9 Sur 14 Sur 0 -- -- 28
2020-09-08 19:00:00 28.1 9 Sur 20 Sur 0 -- -- 27
2020-09-08 18:00:00 28.2 12 Sudeste 30 Sudeste 0 -- -- 27
2020-09-08 17:00:00 28.6 14 Sur 27 Sudeste 0 -- -- 26
2020-09-08 16:00:00 28.5 13 Sur 23 Sudeste 0 -- -- 27
2020-09-08 15:00:00 27.6 5 Sudeste 21 Sudeste 0 -- -- 27
2020-09-08 14:00:00 26.4 6 Nordeste 19 Sur 0 -- -- 29
2020-09-08 13:00:00 25.4 4 Sur 15 Este 0 -- -- 30
2020-09-08 12:00:00 24 4 Este 14 Sur 0 -- -- 32
2020-09-08 11:00:00 22.1 4 Sudoeste 10 Sudoeste 0 -- -- 33
2020-09-08 10:00:00 19.4 3 Sudeste 6 Sur 0 -- -- 40
2020-09-08 09:00:00 15.9 0 Calma 12 Noroeste 0 -- -- 47
2020-09-08 08:00:00 15.4 9 Norte 15 Norte 0 -- -- 47
2020-09-08 07:00:00 15.8 4 Norte 17 Noroeste 0 -- -- 45
2020-09-08 06:00:00 16.2 4 Norte 15 Noroeste 0 -- -- 42
2020-09-08 05:00:00 18.1 5 Norte 15 Norte 0 -- -- 36
2020-09-08 04:00:00 17.8 6 Norte 11 Norte 0 -- -- 38
2020-09-08 03:00:00 20.1 7 Norte 15 Nordeste 0 -- -- 34
2020-09-08 02:00:00 21.5 8 Norte 39 Nordeste 0 -- -- 32
2020-09-08 01:00:00 21.8 22 Nordeste 36 Norte 0 -- -- 32
2020-09-08 00:00:00 22 19 Nordeste 51 Norte 0 -- -- 32
2020-09-07 23:00:00 23.1 32 Nordeste 56 Nordeste 0 -- -- 30
2020-09-07 22:00:00 24.4 28 Nordeste 58 Nordeste 0 -- -- 27
2020-09-07 21:00:00 25.4 17 Nordeste 42 Norte 0 -- -- 25
2020-09-07 20:00:00 27.4 21 Nordeste 41 Nordeste 0 -- -- 23
2020-09-07 19:00:00 29.1 23 Nordeste 45 Nordeste 0 -- -- 21
2020-09-07 18:00:00 30.3 17 Nordeste 39 Norte 0 -- -- 22
2020-09-07 17:00:00 30.5 15 Nordeste 30 Este 0 -- -- 23
2020-09-07 16:00:00 30.5 17 Nordeste 33 Nordeste 0 -- -- 24
2020-09-07 15:00:00 29.5 18 Nordeste 37 Nordeste 0 -- -- 25
2020-09-07 14:00:00 28.7 19 Nordeste 35 Nordeste 0 -- -- 27
2020-09-07 13:00:00 27.6 20 Nordeste 39 Nordeste 0 -- -- 29
2020-09-07 12:00:00 26 13 Norte 36 Nordeste 0 -- -- 32
2020-09-07 11:00:00 24.7 9 Nordeste 22 Norte 0 -- -- 33
2020-09-07 10:00:00 22.4 5 Este 19 Norte 0 -- -- 34
2020-09-07 09:00:00 19.4 13 Norte 37 Nordeste 0 -- -- 46
2020-09-07 08:00:00 16.8 8 Noroeste 22 Este 0 -- -- 53
2020-09-07 07:00:00 18.4 4 Sur 16 Oeste 0 -- -- 48
2020-09-07 06:00:00 20.6 15 Nordeste 37 Nordeste 0 -- -- 43
2020-09-07 05:00:00 20.8 6 Sudoeste 15 Sudeste 0 -- -- 45
2020-09-07 04:00:00 23.2 5 Sudeste 13 Oeste 0 -- -- 40
2020-09-07 03:00:00 24 6 Sudoeste 12 Sudoeste 0 -- -- 40
2020-09-07 02:00:00 24.7 5 Sudoeste 12 Norte 0 -- -- 38
2020-09-07 01:00:00 26.5 3 Oeste 22 Norte 0 -- -- 35
2020-09-07 00:00:00 28.6 13 Norte 25 Norte 0 -- -- 30
2020-09-06 23:00:00 28.4 13 Norte 23 Noroeste 0 -- -- 29
2020-09-06 22:00:00 29.1 13 Norte 26 Norte 0 -- -- 28
2020-09-06 21:00:00 30.2 10 Norte 20 Norte 0 -- -- 28
2020-09-06 20:00:00 33 11 Norte 22 Norte 0 -- -- 23
2020-09-06 19:00:00 33.7 8 Nordeste 21 Nordeste 0 -- -- 24
2020-09-06 18:00:00 35.2 9 Norte 18 Nordeste 0 -- -- 22
2020-09-06 17:00:00 33.6 10 Nordeste 23 Sudeste 0 -- -- 25
2020-09-06 16:00:00 34.9 10 Sudeste 21 Sudeste 0 -- -- 23
2020-09-06 15:00:00 33.7 6 Este 19 Oeste 0 -- -- 26
2020-09-06 14:00:00 32.5 8 Sur 18 Sur 0 -- -- 27
2020-09-06 13:00:00 31.2 8 Sur 17 Sur 0 -- -- 29
2020-09-06 12:00:00 29.6 9 Sudeste 13 Sudeste 0 -- -- 32
2020-09-06 11:00:00 27.3 3 Sudeste 8 Sur 0 -- -- 39
2020-09-06 10:00:00 24.3 5 Nordeste 16 Noroeste 0 -- -- 45
2020-09-06 09:00:00 21 0 Calma 5 Sudoeste 0 -- -- 53
2020-09-06 08:00:00 19.6 5 Norte 11 Sur 0 -- -- 54
2020-09-06 07:00:00 20.6 6 Sudoeste 12 Sur 0 -- -- 52
2020-09-06 06:00:00 22.1 0 Calma 9 Norte 0 -- -- 46
2020-09-06 05:00:00 24.2 6 Norte 17 Norte 0 -- -- 40
2020-09-06 04:00:00 24.7 8 Norte 18 Norte 0 -- -- 39
2020-09-06 03:00:00 25.5 4 Norte 35 Nordeste 0 -- -- 37
2020-09-06 02:00:00 27 8 Norte 28 Norte 0 -- -- 33
2020-09-06 01:00:00 26.8 15 Norte 37 Norte 0 -- -- 33
2020-09-06 00:00:00 27.3 13 Norte 26 Norte 0 -- -- 34
2020-09-05 23:00:00 25.8 6 Norte 10 Norte 0 -- -- 32
2020-09-05 22:00:00 25.8 3 Nordeste 14 Norte 0 -- -- 32
2020-09-05 21:00:00 30.5 3 Noroeste 14 Oeste 0 -- -- 25
2020-09-05 20:00:00 34.1 6 Oeste 17 Sudoeste 0 -- -- 21
2020-09-05 19:00:00 35.1 8 Sudoeste 21 Sudoeste 0 -- -- 20
2020-09-05 18:00:00 35.4 11 Sudoeste 28 Sudeste 0 -- -- 19
2020-09-05 17:00:00 35.4 13 Sur 25 Sur 0 -- -- 20
2020-09-05 16:00:00 35.1 7 Este 24 Este 0 -- -- 20
2020-09-05 15:00:00 34.4 10 Sur 22 Sur 0 -- -- 21
2020-09-05 14:00:00 33.7 11 Sur 22 Sur 0 -- -- 23
2020-09-05 13:00:00 32.5 6 Sur 16 Sur 0 -- -- 24
2020-09-05 12:00:00 30.1 7 Sur 15 Sudoeste 0 -- -- 27
2020-09-05 11:00:00 27.6 6 Sur 11 Sudoeste 0 -- -- 30
2020-09-05 10:00:00 25.4 3 Sudeste 7 Sur 0 -- -- 32
2020-09-05 09:00:00 23.8 3 Oeste 12 Oeste 0 -- -- 34
2020-09-05 08:00:00 23 4 Sudoeste 26 Nordeste 0 -- -- 33
2020-09-05 07:00:00 25.8 13 Nordeste 28 Nordeste 0 -- -- 29
2020-09-05 06:00:00 25.7 11 Nordeste 22 Nordeste 0 -- -- 29
2020-09-05 05:00:00 26 12 Nordeste 24 Nordeste 0 -- -- 29
2020-09-05 04:00:00 26.2 12 Nordeste 22 Nordeste 0 -- -- 28
2020-09-05 03:00:00 25.5 3 Sur 23 Norte 0 -- -- 30
2020-09-05 02:00:00 26.3 9 Norte 19 Norte 0 -- -- 28
2020-09-05 01:00:00 26.7 5 Nordeste 30 Norte 0 -- -- 30
2020-09-05 00:00:00 26.8 18 Norte 33 Norte 0 -- -- 34
2020-09-04 23:00:00 27.4 18 Norte 30 Norte 0 -- -- 33
2020-09-04 22:00:00 25.1 10 Norte 14 Norte 0 -- -- 30
2020-09-04 21:00:00 28.2 10 Norte 12 Norte 0 -- -- 27
2020-09-04 20:00:00 32.8 8 Este 16 Sudeste 0 -- -- 20
2020-09-04 19:00:00 34.1 6 Este 20 Sudeste 0 -- -- 19
2020-09-04 18:00:00 34.2 9 Este 22 Sur 0 -- -- 19
2020-09-04 17:00:00 34.6 9 Sur 22 Sudeste 0 -- -- 19
2020-09-04 16:00:00 34 9 Sudeste 24 Sur 0 -- -- 21
2020-09-04 15:00:00 33.5 12 Sur 22 Sudeste 0 -- -- 22
2020-09-04 14:00:00 32.4 9 Sur 23 Sur 0 -- -- 25
2020-09-04 13:00:00 30.4 13 Sudeste 28 Sudeste 0 -- -- 29
2020-09-04 12:00:00 29.4 13 Sur 20 Sur 0 -- -- 30
2020-09-04 11:00:00 28.2 5 Sur 13 Sur 0 -- -- 29
2020-09-04 10:00:00 26.1 2 Sudeste 12 Sudeste 0 -- -- 31
2020-09-04 09:00:00 19.3 4 Noroeste 9 Este 0 -- -- 42
2020-09-04 08:00:00 17.7 5 Oeste 12 Sudeste 0 -- -- 42
2020-09-04 07:00:00 18 7 Norte 14 Norte 0 -- -- 42
2020-09-04 06:00:00 19.2 12 Norte 14 Norte 0 -- -- 38
2020-09-04 05:00:00 20.8 6 Norte 10 Norte 0 -- -- 33
2020-09-04 04:00:00 19.2 3 Nordeste 12 Norte 0 -- -- 36
2020-09-04 03:00:00 21.1 9 Norte 13 Noroeste 0 -- -- 31
2020-09-04 02:00:00 21.8 3 Noroeste 11 Norte 0 -- -- 30
2020-09-04 01:00:00 22.8 6 Norte 14 Norte 0 -- -- 29
2020-09-04 00:00:00 23.3 9 Norte 14 Norte 0 -- -- 28
2020-09-03 23:00:00 23.5 9 Norte 15 Norte 0 -- -- 29
2020-09-03 22:00:00 25.4 13 Norte 15 Norte 0 -- -- 26
2020-09-03 21:00:00 28.4 8 Norte 12 Norte 0 -- -- 23
2020-09-03 20:00:00 32.8 9 Sudeste 17 Sur 0 -- -- 18
2020-09-03 19:00:00 33.8 10 Sudeste 18 Sudeste 0 -- -- 17
2020-09-03 18:00:00 34.3 5 Sudeste 20 Sudeste 0 -- -- 17
2020-09-03 17:00:00 34.1 6 Este 21 Sur 0 -- -- 18
2020-09-03 16:00:00 34 6 Sudeste 19 Sudeste 0 -- -- 18
2020-09-03 15:00:00 32.7 7 Nordeste 22 Sur 0 -- -- 19
2020-09-03 14:00:00 32.4 12 Sur 21 Sur 0 -- -- 20
2020-09-03 13:00:00 31 10 Sudoeste 23 Sudoeste 0 -- -- 21
2020-09-03 12:00:00 29.1 6 Sur 13 Sur 0 -- -- 24
2020-09-03 11:00:00 26.2 6 Sur 10 Sudoeste 0 -- -- 28
2020-09-03 10:00:00 22.8 6 Sudoeste 10 Oeste 0 -- -- 33
2020-09-03 09:00:00 19.5 2 Este 9 Norte 0 -- -- 39
2020-09-03 08:00:00 16.5 5 Norte 7 Norte 0 -- -- 41
2020-09-03 07:00:00 17.9 3 Norte 9 Norte 0 -- -- 38
2020-09-03 06:00:00 17.5 5 Norte 12 Norte 0 -- -- 38
2020-09-03 05:00:00 18.7 3 Norte 8 Oeste 0 -- -- 35
2020-09-03 04:00:00 20.3 0 Calma 6 Nordeste 0 -- -- 32
2020-09-03 03:00:00 21.4 2 Sudeste 6 Sudoeste 0 -- -- 30
2020-09-03 02:00:00 22.8 2 Sur 24 Nordeste 0 -- -- 28
2020-09-03 01:00:00 25.3 16 Nordeste 30 Nordeste 0 -- -- 24
2020-09-03 00:00:00 23.5 8 Nordeste 19 Este 0 -- -- 28
2020-09-02 23:00:00 22.9 3 Norte 16 Norte 0 -- -- 30
2020-09-02 22:00:00 23.4 12 Norte 14 Norte 0 -- -- 29
2020-09-02 21:00:00 27.1 7 Norte 11 Sudoeste 0 -- -- 25
2020-09-02 20:00:00 31.5 5 Sur 14 Sudoeste 0 -- -- 19
2020-09-02 19:00:00 32.1 4 Oeste 18 Sudoeste 0 -- -- 18
2020-09-02 18:00:00 31.9 6 Noroeste 20 Sur 0 -- -- 19
2020-09-02 17:00:00 31.9 13 Sur 26 Sudoeste 0 -- -- 19
2020-09-02 16:00:00 31.3 9 Norte 21 Sudeste 0 -- -- 21
2020-09-02 15:00:00 31.2 12 Sudeste 22 Sur 0 -- -- 21
2020-09-02 14:00:00 30.6 9 Sur 20 Sur 0 -- -- 23
2020-09-02 13:00:00 28.7 4 Norte 16 Sur 0 -- -- 24
2020-09-02 12:00:00 27.8 6 Sudeste 14 Sudeste 0 -- -- 26
2020-09-02 11:00:00 25.2 5 Sur 9 Sudeste 0 -- -- 32
2020-09-02 10:00:00 22.4 4 Sudeste 7 Nordeste 0 -- -- 40
2020-09-02 09:00:00 18.6 5 Nordeste 14 Norte 0 -- -- 47
2020-09-02 08:00:00 16.4 8 Noroeste 10 Noroeste 0 -- -- 54
2020-09-02 07:00:00 18 5 Norte 8 Norte 0 -- -- 49
2020-09-02 06:00:00 19.3 2 Sudoeste 15 Noroeste 0 -- -- 45
2020-09-02 05:00:00 20.8 9 Noroeste 24 Norte 0 -- -- 43
2020-09-02 04:00:00 20.6 8 Norte 33 Noroeste 0 -- -- 49
2020-09-02 03:00:00 21 8 Nordeste 45 Norte 0 -- -- 46
2020-09-02 02:00:00 21.3 23 Norte 49 Norte 0 -- -- 48
2020-09-02 01:00:00 21.6 21 Norte 40 Norte 0 -- -- 46
2020-09-02 00:00:00 22.1 23 Norte 38 Norte 0 -- -- 43
2020-09-01 23:00:00 22.7 22 Norte 40 Norte 0 -- -- 42
2020-09-01 22:00:00 24 15 Norte 28 Norte 0 -- -- 40
2020-09-01 21:00:00 25.1 9 Norte 15 Norte 0 -- -- 27
2020-09-01 20:00:00 29 8 Norte 21 Norte 0 -- -- 21
2020-09-01 19:00:00 30 12 Noroeste 22 Noroeste 0 -- -- 21
2020-09-01 18:00:00 30.6 10 Norte 24 Norte 0 -- -- 18
2020-09-01 17:00:00 30.3 12 Noroeste 26 Noroeste 0 -- -- 19
2020-09-01 16:00:00 30.4 8 Norte 18 Este 0 -- -- 21
2020-09-01 15:00:00 30 10 Sur 23 Sudeste 0 -- -- 20
2020-09-01 14:00:00 29 11 Sur 19 Sur 0 -- -- 21
2020-09-01 13:00:00 27.2 7 Sur 13 Sur 0 -- -- 22
2020-09-01 12:00:00 25 4 Este 7 Nordeste 0 -- -- 25
2020-09-01 11:00:00 21.5 2 Este 6 Nordeste 0 -- -- 32
2020-09-01 10:00:00 18.5 2 Sudoeste 5 Sur 0 -- -- 43
2020-09-01 09:00:00 17.1 0 Calma 12 Norte 0 -- -- 42
2020-09-01 08:00:00 15.8 9 Norte 11 Norte 0 -- -- 43
2020-09-01 07:00:00 17.3 6 Noroeste 9 Norte 0 -- -- 38
2020-09-01 06:00:00 18.3 2 Noroeste 7 Nordeste 0 -- -- 36
2020-09-01 05:00:00 19.6 4 Norte 13 Noroeste 0 -- -- 32
2020-09-01 04:00:00 18.6 5 Norte 8 Norte 0 -- -- 33
2020-09-01 03:00:00 18.7 6 Norte 9 Norte 0 -- -- 33
2020-09-01 02:00:00 19.3 4 Norte 9 Sudeste 0 -- -- 33
2020-09-01 01:00:00 22 6 Nordeste 22 Este 0 -- -- 29
2020-09-01 00:00:00 21.2 8 Nordeste 14 Nordeste 0 -- -- 29
2020-08-31 23:00:00 19.4 4 Este 14 Norte 0 -- -- 33
2020-08-31 22:00:00 20.6 11 Norte 15 Norte 0 -- -- 30
2020-08-31 21:00:00 23.1 10 Norte 12 Norte 0 -- -- 28
2020-08-31 20:00:00 27.7 7 Sur 14 Sur 0 -- -- 20
2020-08-31 19:00:00 28.6 9 Sudoeste 23 Sudeste 0 -- -- 19
2020-08-31 18:00:00 28.4 8 Sur 22 Sudoeste 0 -- -- 20
2020-08-31 17:00:00 27.9 5 Norte 16 Este 0 -- -- 21
2020-08-31 16:00:00 27.1 7 Sur 19 Sudoeste 0 -- -- 22
2020-08-31 15:00:00 26.9 6 Este 19 Sudeste 0 -- -- 23
2020-08-31 14:00:00 25.4 8 Sur 21 Sur 0 -- -- 25
2020-08-31 13:00:00 23.8 12 Sudeste 19 Sudeste 0 -- -- 28
2020-08-31 12:00:00 23.5 10 Sudeste 23 Sur 0 -- -- 29
2020-08-31 11:00:00 22.3 8 Sur 16 Sur 0 -- -- 30
2020-08-31 10:00:00 18.8 7 Sudoeste 11 Sudoeste 0 -- -- 36
2020-08-31 09:00:00 15.8 3 Norte 11 Norte 0 -- -- 44
2020-08-31 08:00:00 13.3 5 Noroeste 12 Noroeste 0 -- -- 45
2020-08-31 07:00:00 13.6 9 Noroeste 13 Noroeste 0 -- -- 43
2020-08-31 06:00:00 13.2 6 Norte 12 Norte 0 -- -- 42
2020-08-31 05:00:00 13.5 6 Norte 12 Norte 0 -- -- 42
2020-08-31 04:00:00 14.7 4 Oeste 8 Noroeste 0 -- -- 39
2020-08-31 03:00:00 17.5 4 Sur 20 Nordeste 0 -- -- 33
2020-08-31 02:00:00 18.8 7 Este 36 Nordeste 0 -- -- 31
2020-08-31 01:00:00 19 12 Nordeste 32 Nordeste 0 -- -- 31
2020-08-31 00:00:00 19.7 22 Nordeste 47 Nordeste 0 -- -- 31
2020-08-30 23:00:00 20.2 22 Nordeste 42 Nordeste 0 -- -- 30
2020-08-30 22:00:00 20.9 19 Nordeste 36 Nordeste 0 -- -- 29
2020-08-30 21:00:00 21.9 11 Norte 25 Nordeste 0 -- -- 27
2020-08-30 20:00:00 24.1 13 Nordeste 27 Nordeste 0 -- -- 24
2020-08-30 19:00:00 25.3 12 Nordeste 29 Nordeste 0 -- -- 22
2020-08-30 18:00:00 26.1 16 Nordeste 28 Nordeste 0 -- -- 21
2020-08-30 17:00:00 26.1 10 Norte 27 Nordeste 0 -- -- 20
2020-08-30 16:00:00 26.2 13 Nordeste 26 Nordeste 0 -- -- 21
2020-08-30 15:00:00 25.7 8 Este 21 Norte 0 -- -- 23
2020-08-30 14:00:00 24.2 14 Nordeste 33 Norte 0 -- -- 27
2020-08-30 13:00:00 23.1 12 Nordeste 24 Nordeste 0 -- -- 30
2020-08-30 12:00:00 22.3 9 Sudeste 15 Este 0 -- -- 33
2020-08-30 11:00:00 20.8 5 Este 11 Nordeste 0 -- -- 37
2020-08-30 10:00:00 18.3 4 Sur 6 Sur 0 -- -- 45
2020-08-30 09:00:00 14.2 4 Oeste 10 Norte 0 -- -- 57
2020-08-30 08:00:00 12.1 7 Norte 13 Norte 0 -- -- 62
2020-08-30 07:00:00 13 2 Este 15 Nordeste 0 -- -- 59
2020-08-30 06:00:00 14.6 9 Nordeste 47 Nordeste 0 -- -- 54
2020-08-30 05:00:00 15.3 21 Nordeste 45 Nordeste 0 -- -- 51
2020-08-30 04:00:00 15.6 10 Sur 45 Nordeste 0 -- -- 51
2020-08-30 03:00:00 16.9 19 Norte 47 Nordeste 0 -- -- 48
2020-08-30 02:00:00 17.3 26 Norte 45 Norte 0 -- -- 46
2020-08-30 01:00:00 17.5 22 Norte 49 Noroeste 0 -- -- 47
2020-08-30 00:00:00 18 22 Norte 39 Norte 0 -- -- 46
2020-08-29 23:00:00 18.9 18 Norte 33 Norte 0 -- -- 42
2020-08-29 22:00:00 19.9 13 Norte 30 Noroeste 0 -- -- 37
2020-08-29 21:00:00 21.2 9 Norte 27 Norte 0 -- -- 35
2020-08-29 20:00:00 23.1 17 Norte 35 Norte 0 -- -- 33
2020-08-29 19:00:00 24.1 18 Norte 32 Norte 0 -- -- 31
2020-08-29 18:00:00 24.8 12 Noroeste 31 Norte 0 -- -- 29
2020-08-29 17:00:00 24.5 13 Noroeste 37 Norte 0 -- -- 31
2020-08-29 16:00:00 24.3 13 Norte 42 Nordeste 0 -- -- 31
2020-08-29 15:00:00 23.8 13 Nordeste 37 Norte 0 -- -- 32
2020-08-29 14:00:00 21.1 11 Norte 40 Norte 0 -- -- 38
2020-08-29 13:00:00 20.6 18 Norte 40 Nordeste 0 -- -- 40
2020-08-29 12:00:00 18.5 18 Norte 37 Noroeste 0 -- -- 48
2020-08-29 11:00:00 17.5 14 Norte 35 Norte 0 -- -- 53
2020-08-29 10:00:00 16.3 13 Norte 40 Nordeste 0 -- -- 57
2020-08-29 09:00:00 14 3 Norte 24 Nordeste 0 -- -- 65
2020-08-29 08:00:00 13.1 6 Nordeste 23 Nordeste 0 -- -- 67
2020-08-29 07:00:00 13.4 15 Nordeste 31 Nordeste 0 -- -- 64
2020-08-29 06:00:00 13.6 9 Norte 29 Nordeste 0 -- -- 59
2020-08-29 05:00:00 14.3 14 Norte 43 Norte 0 -- -- 55
2020-08-29 04:00:00 14.9 14 Norte 46 Norte 0 -- -- 55
2020-08-29 03:00:00 15.9 16 Sur 46 Norte 0 -- -- 53
2020-08-29 02:00:00 16.7 13 Sudeste 44 Norte 0 -- -- 52
2020-08-29 01:00:00 17.1 9 Noroeste 31 Norte 0 -- -- 56
2020-08-29 00:00:00 18.1 11 Noroeste 45 Noroeste 0 -- -- 53
2020-08-28 23:00:00 19.3 18 Norte 42 Noroeste 0 -- -- 51
2020-08-28 22:00:00 20.6 13 Noroeste 36 Oeste 0 -- -- 47
2020-08-28 21:00:00 22.1 14 Noroeste 31 Norte 0 -- -- 39
2020-08-28 20:00:00 25.1 19 Noroeste 37 Noroeste 0 -- -- 29
2020-08-28 19:00:00 27.4 15 Noroeste 34 Noroeste 0 -- -- 26
2020-08-28 18:00:00 28.2 20 Noroeste 38 Noroeste 0 -- -- 24
2020-08-28 17:00:00 29.6 12 Norte 33 Noroeste 0 -- -- 21
2020-08-28 16:00:00 29.3 17 Noroeste 33 Noroeste 0 -- -- 20
2020-08-28 15:00:00 28.3 18 Norte 37 Norte 0 -- -- 23
2020-08-28 14:00:00 27.6 18 Norte 35 Noroeste 0 -- -- 25
2020-08-28 13:00:00 27 17 Noroeste 42 Noroeste 0 -- -- 26
2020-08-28 12:00:00 24 20 Norte 34 Noroeste 0 -- -- 41
2020-08-28 11:00:00 23.5 19 Norte 38 Norte 0 -- -- 53
2020-08-28 10:00:00 22.8 12 Nordeste 38 Noroeste 0 -- -- 59
2020-08-28 09:00:00 20.9 17 Norte 41 Norte 0 -- -- 67
2020-08-28 08:00:00 19.9 8 Nordeste 30 Este 0 -- -- 71
2020-08-28 07:00:00 20.5 8 Sudeste 24 Sudoeste 0 -- -- 69
2020-08-28 06:00:00 20.9 9 Nordeste 51 Nordeste 0 -- -- 65
2020-08-28 05:00:00 21.2 10 Sudoeste 43 Norte 0 -- -- 61
2020-08-28 04:00:00 21.2 22 Norte 49 Norte 0 -- -- 66
2020-08-28 03:00:00 22.2 19 Norte 52 Norte 0 -- -- 62
2020-08-28 02:00:00 23 27 Norte 51 Norte 0 -- -- 60
2020-08-28 01:00:00 23.7 31 Norte 50 Norte 0 -- -- 58
2020-08-28 00:00:00 24.7 29 Norte 51 Norte 0 -- -- 58
2020-08-27 23:00:00 25.9 28 Norte 49 Norte 0 -- -- 55
2020-08-27 22:00:00 27.3 28 Norte 46 Noroeste 0 -- -- 49
2020-08-27 21:00:00 29 23 Norte 49 Norte 0 -- -- 43
2020-08-27 20:00:00 31.2 25 Norte 45 Norte 0 -- -- 39
2020-08-27 19:00:00 33.3 24 Noroeste 41 Norte 0 -- -- 33
2020-08-27 18:00:00 35.7 16 Noroeste 31 Noroeste 0 -- -- 26
2020-08-27 17:00:00 36 12 Norte 39 Sudeste 0 -- -- 25
2020-08-27 16:00:00 35.7 7 Nordeste 20 Norte 0 -- -- 29
2020-08-27 15:00:00 35.1 10 Norte 22 Nordeste 0 -- -- 29
2020-08-27 14:00:00 33.9 5 Sur 17 Norte 0 -- -- 33
2020-08-27 13:00:00 32.6 11 Nordeste 34 Nordeste 0 -- -- 36
2020-08-27 12:00:00 30.7 22 Nordeste 40 Nordeste 0 -- -- 43
2020-08-27 11:00:00 29.4 17 Nordeste 37 Norte 0 -- -- 47
2020-08-27 10:00:00 27.2 11 Norte 33 Norte 0 -- -- 55
2020-08-27 09:00:00 25.1 18 Nordeste 41 Nordeste 0 -- -- 62
2020-08-27 08:00:00 24.2 12 Norte 24 Norte 0 -- -- 66
2020-08-27 07:00:00 25 6 Norte 38 Nordeste 0 -- -- 62
2020-08-27 06:00:00 25.1 13 Nordeste 27 Nordeste 0 -- -- 61
2020-08-27 05:00:00 25.7 11 Norte 22 Norte 0 -- -- 59
2020-08-27 04:00:00 26.6 7 Norte 32 Nordeste 0 -- -- 54
2020-08-27 03:00:00 27 5 Nordeste 27 Norte 0 -- -- 52
2020-08-27 02:00:00 27.3 15 Norte 37 Norte 0 -- -- 46
2020-08-27 01:00:00 27.3 20 Norte 46 Noroeste 0 -- -- 49
2020-08-27 00:00:00 27.6 22 Norte 39 Norte 0 -- -- 52
2020-08-26 23:00:00 28.8 19 Norte 39 Norte 0 -- -- 47
2020-08-26 22:00:00 30.5 15 Norte 26 Norte 0 -- -- 31
2020-08-26 21:00:00 32.5 12 Noroeste 21 Noroeste 0 -- -- 27
2020-08-26 20:00:00 35.5 12 Noroeste 28 Noroeste 0 -- -- 23
2020-08-26 19:00:00 37.4 8 Sudeste 22 Sudoeste 0 -- -- 17
2020-08-26 18:00:00 37.7 10 Sudoeste 38 Sudeste 0 -- -- 17
2020-08-26 17:00:00 37.6 10 Sur 24 Sudeste 0 -- -- 18
2020-08-26 16:00:00 37.3 13 Sur 22 Sur 0 -- -- 18
2020-08-26 15:00:00 36.5 10 Sur 21 Sudeste 0 -- -- 21
2020-08-26 14:00:00 35.5 9 Sur 22 Sudeste 0 -- -- 23
2020-08-26 13:00:00 34 7 Sur 16 Sudeste 0 -- -- 27
2020-08-26 12:00:00 32.5 7 Nordeste 16 Norte 0 -- -- 31
2020-08-26 11:00:00 30.4 5 Sudeste 10 Este 0 -- -- 36
2020-08-26 10:00:00 26.7 4 Sur 6 Sur 0 -- -- 43
2020-08-26 09:00:00 23.4 0 Calma 8 Norte 0 -- -- 49
2020-08-26 08:00:00 18.4 5 Norte 9 Norte 0 -- -- 61
2020-08-26 07:00:00 21.3 5 Noroeste 8 Norte 0 -- -- 53
2020-08-26 06:00:00 22.2 0 Calma 6 Oeste 0 -- -- 54
2020-08-26 05:00:00 24.2 5 Oeste 13 Oeste 0 -- -- 48
2020-08-26 04:00:00 26.3 9 Nordeste 24 Nordeste 0 -- -- 44
2020-08-26 03:00:00 26.3 6 Norte 25 Este 0 -- -- 44
2020-08-26 02:00:00 26.8 10 Norte 40 Norte 0 -- -- 43
2020-08-26 01:00:00 27.5 13 Norte 30 Norte 0 -- -- 38
2020-08-26 00:00:00 27.2 15 Norte 38 Norte 0 -- -- 39
2020-08-25 23:00:00 28 24 Norte 41 Norte 0 -- -- 37
2020-08-25 22:00:00 29.8 19 Norte 33 Norte 0 -- -- 26
2020-08-25 21:00:00 32.5 11 Norte 28 Norte 0 -- -- 22
2020-08-25 20:00:00 35.8 8 Sur 19 Sur 0 -- -- 17
2020-08-25 19:00:00 36.7 9 Sur 21 Sur 0 -- -- 16
2020-08-25 18:00:00 37 10 Sur 22 Sur 0 -- -- 16
2020-08-25 17:00:00 37.1 9 Este 26 Sudoeste 0 -- -- 16
2020-08-25 16:00:00 36.6 13 Sur 28 Sudeste 0 -- -- 19
2020-08-25 15:00:00 35.4 14 Sudoeste 34 Sur 0 -- -- 22
2020-08-25 14:00:00 34.7 12 Sudoeste 24 Sudoeste 0 -- -- 22
2020-08-25 13:00:00 33.6 9 Sudoeste 17 Sur 0 -- -- 24
2020-08-25 12:00:00 32.6 5 Sudeste 14 Sur 0 -- -- 25
2020-08-25 11:00:00 30 5 Sur 8 Sur 0 -- -- 32
2020-08-25 10:00:00 27 4 Sur 6 Sur 0 -- -- 39
2020-08-25 09:00:00 23.2 0 Calma 7 Norte 0 -- -- 45
2020-08-25 08:00:00 20.5 3 Norte 6 Norte 0 -- -- 49
2020-08-25 07:00:00 21.4 4 Sudoeste 6 Sudoeste 0 -- -- 48
2020-08-25 06:00:00 21.6 3 Norte 9 Norte 0 -- -- 45
2020-08-25 05:00:00 23.7 5 Oeste 11 Noroeste 0 -- -- 43
2020-08-25 04:00:00 25.9 4 Norte 10 Norte 0 -- -- 36
2020-08-25 03:00:00 26.2 4 Nordeste 12 Norte 0 -- -- 36
2020-08-25 02:00:00 26.8 3 Norte 23 Norte 0 -- -- 36
2020-08-25 01:00:00 27.7 11 Norte 35 Norte 0 -- -- 35
2020-08-25 00:00:00 28.4 11 Norte 32 Norte 0 -- -- 29
2020-08-24 23:00:00 28.3 4 Nordeste 20 Norte 0 -- -- 31
2020-08-24 22:00:00 29.3 12 Norte 24 Norte 0 -- -- 31
2020-08-24 21:00:00 31.7 5 Nordeste 15 Sudeste 0 -- -- 23
2020-08-24 20:00:00 34.8 8 Sudeste 12 Sudeste 0 -- -- 18
2020-08-24 19:00:00 34.7 8 Sudeste 18 Sur 0 -- -- 18
2020-08-24 18:00:00 35.8 9 Sudeste 21 Sudeste 0 -- -- 17
2020-08-24 17:00:00 35.3 8 Sudoeste 31 Sur 0 -- -- 18
2020-08-24 16:00:00 35.6 13 Sur 21 Este 0 -- -- 17
2020-08-24 15:00:00 34.6 8 Sudoeste 24 Sur 0 -- -- 19
2020-08-24 14:00:00 34.4 10 Sudeste 24 Sudoeste 0 -- -- 20
2020-08-24 13:00:00 32.7 9 Sudoeste 17 Sudeste 0 -- -- 24
2020-08-24 12:00:00 31.8 6 Sur 14 Sur 0 -- -- 26
2020-08-24 11:00:00 31 6 Sudeste 12 Sudeste 0 -- -- 28
2020-08-24 10:00:00 28 3 Este 8 Nordeste 0 -- -- 32
2020-08-24 09:00:00 24.4 5 Oeste 12 Oeste 0 -- -- 37
2020-08-24 08:00:00 23.4 9 Sudoeste 34 Nordeste 0 -- -- 37
2020-08-24 07:00:00 24.6 19 Nordeste 36 Nordeste 0 -- -- 34
2020-08-24 06:00:00 23.3 4 Nordeste 40 Nordeste 0 -- -- 41
2020-08-24 05:00:00 23.6 9 Nordeste 25 Nordeste 0 -- -- 41
2020-08-24 04:00:00 24 5 Este 29 Noroeste 0 -- -- 42
2020-08-24 03:00:00 24.4 16 Norte 39 Norte 0 -- -- 47
2020-08-24 02:00:00 24.4 24 Norte 44 Norte 0 -- -- 49
2020-08-24 01:00:00 25 22 Norte 45 Norte 0 -- -- 45
2020-08-24 00:00:00 26.1 23 Norte 43 Norte 0 -- -- 37
2020-08-23 23:00:00 27 19 Norte 39 Norte 0 -- -- 33
2020-08-23 22:00:00 28 16 Norte 31 Norte 0 -- -- 29
2020-08-23 21:00:00 29.9 13 Norte 29 Norte 0 -- -- 24
2020-08-23 20:00:00 32 17 Norte 30 Norte 0 -- -- 21
2020-08-23 19:00:00 33.5 13 Norte 28 Nordeste 0 -- -- 19
2020-08-23 18:00:00 33.9 13 Norte 32 Nordeste 0 -- -- 17
2020-08-23 17:00:00 33.6 16 Este 31 Nordeste 0 -- -- 16
2020-08-23 16:00:00 33.3 16 Nordeste 28 Nordeste 0 -- -- 15
2020-08-23 15:00:00 32.3 12 Este 26 Nordeste 0 -- -- 17
2020-08-23 14:00:00 31.2 17 Nordeste 31 Nordeste 0 -- -- 21
2020-08-23 13:00:00 30.1 18 Nordeste 35 Nordeste 0 -- -- 25
2020-08-23 12:00:00 28.8 18 Nordeste 32 Nordeste 0 -- -- 29
2020-08-23 11:00:00 27.1 21 Nordeste 35 Nordeste 0 -- -- 30
2020-08-23 10:00:00 23.9 18 Nordeste 44 Nordeste 0 -- -- 39
2020-08-23 09:00:00 21.7 21 Nordeste 39 Nordeste 0 -- -- 45
2020-08-23 08:00:00 19.6 19 Nordeste 36 Norte 0 -- -- 52
2020-08-23 07:00:00 21 4 Noroeste 37 Nordeste 0 -- -- 43
2020-08-23 06:00:00 21.2 11 Sudoeste 24 Sur 0 -- -- 43
2020-08-23 05:00:00 21.8 7 Este 22 Nordeste 0 -- -- 45
2020-08-23 04:00:00 21.4 14 Sudoeste 25 Sudoeste 0 -- -- 46
2020-08-23 03:00:00 22 8 Nordeste 37 Norte 0 -- -- 44
2020-08-23 02:00:00 22.5 20 Norte 45 Norte 0 -- -- 42
2020-08-23 01:00:00 23.1 16 Norte 34 Noroeste 0 -- -- 38
2020-08-23 00:00:00 23.5 18 Norte 41 Norte 0 -- -- 37